createdAt,value
2022-12-11T00:00:25.315Z,58.98
2022-12-11T00:02:57.159Z,58.56
2022-12-11T00:05:28.761Z,58.12
2022-12-11T00:08:00.459Z,58.33
2022-12-11T00:10:36.241Z,58.68
2022-12-11T00:13:09.498Z,57.74
2022-12-11T00:15:41.089Z,58.89
2022-12-11T00:18:13.823Z,58.27
2022-12-11T00:20:45.433Z,58.91
2022-12-11T00:23:17.122Z,58.68
2022-12-11T00:25:48.650Z,60.46
2022-12-11T00:28:20.188Z,58.64
2022-12-11T00:30:51.712Z,59.56
2022-12-11T00:33:23.280Z,59.47
2022-12-11T00:35:54.815Z,57.98
2022-12-11T00:38:27.238Z,59.60
2022-12-11T00:40:59.807Z,58.69
2022-12-11T00:43:31.445Z,59.00
2022-12-11T00:46:03.783Z,60.13
2022-12-11T00:48:35.405Z,59.90
2022-12-11T00:51:07.197Z,59.10
2022-12-11T00:53:39.632Z,58.58
2022-12-11T00:56:18.081Z,61.06
2022-12-11T00:58:50.215Z,59.96
2022-12-11T01:01:24.183Z,61.48
2022-12-11T01:03:56.752Z,62.82
2022-12-11T01:06:29.354Z,64.32
2022-12-11T01:09:00.922Z,64.34
2022-12-11T01:11:32.448Z,63.40
2022-12-11T01:14:04.959Z,63.70
2022-12-11T01:16:37.056Z,62.59
2022-12-11T01:19:08.821Z,62.58
2022-12-11T01:21:40.462Z,63.00
2022-12-11T01:24:12.024Z,64.61
2022-12-11T01:26:43.538Z,64.10
2022-12-11T01:29:15.426Z,64.45
2022-12-11T01:31:46.942Z,64.45
2022-12-11T01:34:18.478Z,64.40
2022-12-11T01:36:52.249Z,65.34
2022-12-11T01:39:23.941Z,64.40
2022-12-11T01:42:00.397Z,65.75
2022-12-11T01:44:31.914Z,65.79
2022-12-11T01:47:03.520Z,66.41
2022-12-11T01:49:36.034Z,66.54
2022-12-11T01:52:19.513Z,66.36
2022-12-11T01:54:51.375Z,67.00
2022-12-11T01:57:23.015Z,66.28
2022-12-11T01:59:56.016Z,67.03
2022-12-11T02:02:31.815Z,66.38
2022-12-11T02:05:06.063Z,65.51
2022-12-11T02:07:42.593Z,65.33
2022-12-11T02:10:15.334Z,64.53
2022-12-11T02:13:01.310Z,64.64
2022-12-11T02:15:51.731Z,64.91
2022-12-11T02:18:38.879Z,65.15
2022-12-11T02:21:24.508Z,64.57
2022-12-11T02:24:17.777Z,63.96
2022-12-11T02:27:12.045Z,65.66
2022-12-11T02:30:03.963Z,65.24
2022-12-11T02:32:45.480Z,65.78
2022-12-11T02:35:33.356Z,66.49
2022-12-11T02:38:19.505Z,65.96
2022-12-11T02:40:55.467Z,65.87
2022-12-11T02:43:31.397Z,65.29
2022-12-11T02:46:07.878Z,65.49
2022-12-11T02:48:42.718Z,64.59
2022-12-11T02:51:18.498Z,66.03
2022-12-11T02:53:54.688Z,64.58
2022-12-11T02:56:36.926Z,63.10
2022-12-11T02:59:18.992Z,63.01
2022-12-11T03:01:50.851Z,63.41
2022-12-11T03:04:22.624Z,63.29
2022-12-11T03:06:59.817Z,64.33
2022-12-11T03:09:31.983Z,63.26
2022-12-11T03:12:04.011Z,62.86
2022-12-11T03:14:39.148Z,61.86
2022-12-11T03:17:18.933Z,62.09
2022-12-11T03:20:01.281Z,62.86
2022-12-11T03:22:46.160Z,63.52
2022-12-11T03:25:44.434Z,63.47
2022-12-11T03:28:34.626Z,63.14
2022-12-11T03:31:18.112Z,63.82
2022-12-11T03:33:55.782Z,62.37
2022-12-11T03:36:36.127Z,62.79
2022-12-11T03:39:32.333Z,62.34
2022-12-11T03:42:10.212Z,61.31
2022-12-11T03:44:47.746Z,61.69
2022-12-11T03:47:26.746Z,62.28
2022-12-11T03:50:02.014Z,63.70
2022-12-11T03:52:38.625Z,64.16
2022-12-11T03:55:17.541Z,66.82
2022-12-11T03:57:49.647Z,66.51
2022-12-11T04:00:22.090Z,66.74
2022-12-11T04:02:53.951Z,65.15
2022-12-11T04:05:25.555Z,65.96
2022-12-11T04:07:57.312Z,65.10
2022-12-11T04:10:29.063Z,65.57
2022-12-11T04:13:03.862Z,64.65
2022-12-11T04:15:37.392Z,64.17
2022-12-11T04:18:10.332Z,65.04
2022-12-11T04:20:41.976Z,64.27
2022-12-11T04:23:16.948Z,64.98
2022-12-11T04:25:48.597Z,65.66
2022-12-11T04:28:20.330Z,64.56
2022-12-11T04:30:51.957Z,64.95
2022-12-11T04:33:23.659Z,64.08
2022-12-11T04:35:58.643Z,64.30
2022-12-11T04:38:30.795Z,63.69
2022-12-11T04:41:14.296Z,65.53
2022-12-11T04:43:45.964Z,65.07
2022-12-11T04:46:21.096Z,64.43
2022-12-11T04:48:57.283Z,64.39
2022-12-11T04:51:30.040Z,65.73
2022-12-11T04:54:01.734Z,64.79
2022-12-11T04:56:33.447Z,63.72
2022-12-11T04:59:05.081Z,63.26
2022-12-11T05:01:36.923Z,62.86
2022-12-11T05:04:08.590Z,63.06
2022-12-11T05:06:40.392Z,62.39
2022-12-11T05:09:13.288Z,62.92
2022-12-11T05:11:45.003Z,63.17
2022-12-11T05:14:16.913Z,63.25
2022-12-11T05:16:48.842Z,63.72
2022-12-11T05:19:20.466Z,64.03
2022-12-11T05:21:53.026Z,63.19
2022-12-11T05:24:24.699Z,63.23
2022-12-11T05:26:56.354Z,62.77
2022-12-11T05:29:28.239Z,63.06
2022-12-11T05:31:59.879Z,62.29
2022-12-11T05:34:31.615Z,62.54
2022-12-11T05:37:03.489Z,62.91
2022-12-11T05:39:35.276Z,63.44
2022-12-11T05:42:06.883Z,64.13
2022-12-11T05:44:38.585Z,64.75
2022-12-11T05:47:10.490Z,65.79
2022-12-11T05:49:42.167Z,66.07
2022-12-11T05:52:13.856Z,66.46
2022-12-11T05:54:49.235Z,67.01
2022-12-11T05:57:21.108Z,68.07
2022-12-11T05:59:52.786Z,67.77
2022-12-11T06:02:24.654Z,66.83
2022-12-11T06:04:56.747Z,66.91
2022-12-11T06:07:28.499Z,65.87
2022-12-11T06:10:00.182Z,66.79
2022-12-11T06:12:31.766Z,67.91
2022-12-11T06:15:03.666Z,67.97
2022-12-11T06:17:35.746Z,66.69
2022-12-11T06:20:07.678Z,66.84
2022-12-11T06:22:39.341Z,66.55
2022-12-11T06:25:11.261Z,67.78
2022-12-11T06:27:43.269Z,66.71
2022-12-11T06:30:15.265Z,67.98
2022-12-11T06:32:47.335Z,67.60
2022-12-11T06:35:19.508Z,67.93
2022-12-11T06:37:51.329Z,67.26
2022-12-11T06:40:23.056Z,68.05
2022-12-11T06:42:55.198Z,68.10
2022-12-11T06:45:27.067Z,68.21
2022-12-11T06:47:58.888Z,67.02
2022-12-11T06:50:30.559Z,67.81
2022-12-11T06:53:02.075Z,67.07
2022-12-11T06:55:37.405Z,69.21
2022-12-11T06:58:10.456Z,68.92
2022-12-11T07:00:42.180Z,67.97
2022-12-11T07:03:13.814Z,68.26
2022-12-11T07:05:45.451Z,68.26
2022-12-11T07:08:17.064Z,68.13
2022-12-11T07:10:48.662Z,68.46
2022-12-11T07:13:20.177Z,68.11
2022-12-11T07:15:51.675Z,68.70
2022-12-11T07:18:23.238Z,68.75
2022-12-11T07:20:54.826Z,69.02
2022-12-11T07:23:27.827Z,68.34
2022-12-11T07:25:59.450Z,68.85
2022-12-11T07:28:31.077Z,69.43
2022-12-11T07:31:11.757Z,69.95
2022-12-11T07:33:43.853Z,68.45
2022-12-11T07:36:15.971Z,67.73
2022-12-11T07:38:48.337Z,67.98
2022-12-11T07:41:20.171Z,66.16
2022-12-11T07:44:00.894Z,62.53
2022-12-11T07:46:34.364Z,60.38
2022-12-11T07:49:06.907Z,58.96
2022-12-11T07:51:39.210Z,57.00
2022-12-11T07:54:17.457Z,56.90
2022-12-11T07:56:53.413Z,56.15
2022-12-11T07:59:25.402Z,55.38
2022-12-11T08:01:57.013Z,56.11
2022-12-11T08:04:28.587Z,54.73
2022-12-11T08:07:00.106Z,53.50
2022-12-11T08:09:31.765Z,51.95
2022-12-11T08:12:03.505Z,49.35
2022-12-11T08:14:35.216Z,48.11
2022-12-11T08:17:06.903Z,48.28
2022-12-11T08:19:38.548Z,46.66
2022-12-11T08:22:10.501Z,47.06
2022-12-11T08:24:42.036Z,45.93
2022-12-11T08:27:13.617Z,44.21
2022-12-11T08:29:45.268Z,41.06
2022-12-11T08:32:16.846Z,42.17
2022-12-11T08:34:51.415Z,41.82
2022-12-11T08:37:22.976Z,41.29
2022-12-11T08:39:56.693Z,41.99
2022-12-11T08:42:28.241Z,45.94
2022-12-11T08:45:00.036Z,50.48
2022-12-11T08:47:31.733Z,52.98
2022-12-11T08:50:04.237Z,53.53
2022-12-11T08:52:35.789Z,52.62
2022-12-11T08:55:07.823Z,52.27
2022-12-11T08:57:39.442Z,48.33
2022-12-11T09:00:13.427Z,44.26
2022-12-11T09:02:45.077Z,38.07
2022-12-11T09:05:17.108Z,35.75
2022-12-11T09:07:48.799Z,38.11
2022-12-11T09:10:20.532Z,35.66
2022-12-11T09:12:52.148Z,36.31
2022-12-11T09:15:23.687Z,36.90
2022-12-11T09:17:55.602Z,34.35
2022-12-11T09:20:27.584Z,35.80
2022-12-11T09:22:59.455Z,36.49
2022-12-11T09:25:31.021Z,34.55
2022-12-11T09:28:02.779Z,33.60
2022-12-11T09:30:34.612Z,33.39
2022-12-11T09:33:06.281Z,33.51
2022-12-11T09:35:37.866Z,37.17
2022-12-11T09:38:09.844Z,36.01
2022-12-11T09:40:42.644Z,35.16
2022-12-11T09:43:52.794Z,35.94
2022-12-11T09:46:26.866Z,33.39
2022-12-11T09:49:04.405Z,33.09
2022-12-11T09:51:49.077Z,31.21
2022-12-11T09:54:20.776Z,29.35
2022-12-11T09:57:06.662Z,29.06
2022-12-11T10:00:05.172Z,30.12
2022-12-11T10:03:15.023Z,29.54
2022-12-11T10:06:11.324Z,28.57
2022-12-11T10:08:53.676Z,29.50
2022-12-11T10:12:10.325Z,30.92
2022-12-11T10:15:04.886Z,28.94
2022-12-11T10:17:39.361Z,28.34
2022-12-11T10:20:46.196Z,27.74
2022-12-11T10:23:36.643Z,27.89
2022-12-11T10:26:19.977Z,28.88
2022-12-11T10:28:51.699Z,29.68
2022-12-11T10:31:37.985Z,30.95
2022-12-11T10:34:31.632Z,30.89
2022-12-11T10:37:03.937Z,29.79
2022-12-11T10:39:35.513Z,31.80
2022-12-11T10:42:19.610Z,30.24
2022-12-11T10:45:05.704Z,30.69
2022-12-11T10:47:37.466Z,28.44
2022-12-11T10:50:24.212Z,25.64
2022-12-11T10:52:56.051Z,25.64
2022-12-11T10:55:38.394Z,27.88
2022-12-11T10:58:19.682Z,26.63
2022-12-11T11:01:14.076Z,26.10
2022-12-11T11:04:06.817Z,26.62
2022-12-11T11:06:38.486Z,26.76
2022-12-11T11:09:30.877Z,27.98
2022-12-11T11:12:07.794Z,27.81
2022-12-11T11:14:39.652Z,27.82
2022-12-11T11:17:16.583Z,26.00
2022-12-11T11:19:49.444Z,25.69
2022-12-11T11:22:21.336Z,25.22
2022-12-11T11:24:59.062Z,26.66
2022-12-11T11:27:41.946Z,26.38
2022-12-11T11:30:26.822Z,24.88
2022-12-11T11:33:03.724Z,24.23
2022-12-11T11:35:35.849Z,24.98
2022-12-11T11:38:25.019Z,24.08
2022-12-11T11:41:19.902Z,25.48
2022-12-11T11:43:59.190Z,25.66
2022-12-11T11:46:42.388Z,24.21
2022-12-11T11:49:35.852Z,24.32
2022-12-11T11:52:30.619Z,23.62
2022-12-11T11:55:21.740Z,22.76
2022-12-11T11:58:05.849Z,22.23
2022-12-11T12:00:37.676Z,24.24
2022-12-11T12:03:15.205Z,22.57
2022-12-11T12:06:25.784Z,24.94
2022-12-11T12:09:22.385Z,24.77
2022-12-11T12:12:22.795Z,24.13
2022-12-11T12:15:23.296Z,25.20
2022-12-11T12:18:01.899Z,23.06
2022-12-11T12:20:59.655Z,24.16
2022-12-11T12:24:02.701Z,24.65
2022-12-11T12:26:39.674Z,23.91
2022-12-11T12:29:48.771Z,24.44
2022-12-11T12:32:25.278Z,24.86
2022-12-11T12:35:09.658Z,24.71
2022-12-11T12:38:03.410Z,23.20
2022-12-11T12:40:51.198Z,23.75
2022-12-11T12:43:47.242Z,23.84
2022-12-11T12:46:55.814Z,22.67
2022-12-11T12:49:44.599Z,22.03
2022-12-11T12:52:31.437Z,22.07
2022-12-11T12:55:19.539Z,22.02
2022-12-11T12:57:55.955Z,22.52
2022-12-11T13:00:30.673Z,22.48
2022-12-11T13:03:15.957Z,23.06
2022-12-11T13:06:10.482Z,21.98
2022-12-11T13:08:48.490Z,21.69
2022-12-11T13:11:32.309Z,23.37
2022-12-11T13:14:08.125Z,21.58
2022-12-11T13:16:43.940Z,22.07
2022-12-11T13:19:24.846Z,20.95
2022-12-11T13:22:20.401Z,20.59
2022-12-11T13:24:52.419Z,21.80
2022-12-11T13:27:36.174Z,23.24
2022-12-11T13:30:23.006Z,22.60
2022-12-11T13:32:54.562Z,22.58
2022-12-11T13:35:26.961Z,23.51
2022-12-11T13:38:14.713Z,23.51
2022-12-11T13:40:56.125Z,21.26
2022-12-11T13:43:33.081Z,21.21
2022-12-11T13:46:10.516Z,23.19
2022-12-11T13:49:04.806Z,22.75
2022-12-11T13:51:36.412Z,26.86
2022-12-11T13:54:18.821Z,25.64
2022-12-11T13:57:15.334Z,26.25
2022-12-11T13:59:55.521Z,24.99
2022-12-11T14:02:40.943Z,24.68
2022-12-11T14:05:13.663Z,25.97
2022-12-11T14:07:58.399Z,27.30
2022-12-11T14:10:32.536Z,30.27
2022-12-11T14:13:14.531Z,35.46
2022-12-11T14:15:46.790Z,37.91
2022-12-11T14:18:23.760Z,39.38
2022-12-11T14:20:58.930Z,39.98
2022-12-11T14:23:33.644Z,43.36
2022-12-11T14:26:23.493Z,44.38
2022-12-11T14:28:55.443Z,45.92
2022-12-11T14:31:42.595Z,47.49
2022-12-11T14:34:37.123Z,46.75
2022-12-11T14:37:10.953Z,48.11
2022-12-11T14:40:06.502Z,48.21
2022-12-11T14:43:00.021Z,48.96
2022-12-11T14:45:40.412Z,49.03
2022-12-11T14:49:04.575Z,50.04
2022-12-11T14:51:41.740Z,49.89
2022-12-11T14:54:23.855Z,50.81
2022-12-11T14:56:56.790Z,51.76
2022-12-11T14:59:32.474Z,53.76
2022-12-11T15:02:24.237Z,53.69
2022-12-11T15:05:18.552Z,54.47
2022-12-11T15:08:11.337Z,54.22
2022-12-11T15:11:06.072Z,54.34
2022-12-11T15:14:00.960Z,54.07
2022-12-11T15:16:39.937Z,54.21
2022-12-11T15:19:34.483Z,54.89
2022-12-11T15:22:09.708Z,53.86
2022-12-11T15:24:44.857Z,53.32
2022-12-11T15:27:37.638Z,54.39
2022-12-11T15:30:17.995Z,54.18
2022-12-11T15:32:49.493Z,54.19
2022-12-11T15:35:24.547Z,54.22
2022-12-11T15:37:59.411Z,53.80
2022-12-11T15:40:31.222Z,53.95
2022-12-11T15:43:02.898Z,55.29
2022-12-11T15:45:35.613Z,55.59
2022-12-11T15:48:10.792Z,54.77
2022-12-11T15:50:43.332Z,55.70
2022-12-11T15:53:14.888Z,55.14
2022-12-11T15:55:46.954Z,54.37
2022-12-11T15:58:21.551Z,55.66
2022-12-11T16:00:53.884Z,55.66
2022-12-11T16:03:25.846Z,55.20
2022-12-11T16:05:57.633Z,56.21
2022-12-11T16:08:29.308Z,55.65
2022-12-11T16:11:00.857Z,55.37
2022-12-11T16:13:32.389Z,55.40
2022-12-11T16:16:04.222Z,56.04
2022-12-11T16:18:35.773Z,55.71
2022-12-11T16:21:07.395Z,55.79
2022-12-11T16:23:38.926Z,56.07
2022-12-11T16:26:10.657Z,56.89
2022-12-11T16:28:42.671Z,56.73
2022-12-11T16:31:15.432Z,57.01
2022-12-11T16:33:47.160Z,57.12
2022-12-11T16:36:20.335Z,57.39
2022-12-11T16:38:54.261Z,58.44
2022-12-11T16:41:26.086Z,58.48
2022-12-11T16:43:57.670Z,58.22
2022-12-11T16:46:29.309Z,58.25
2022-12-11T16:49:00.849Z,59.88
2022-12-11T16:51:32.353Z,59.20
2022-12-11T16:54:04.113Z,58.58
2022-12-11T16:56:35.850Z,58.53
2022-12-11T16:59:07.700Z,57.87
2022-12-11T17:01:39.817Z,57.28
2022-12-11T17:04:11.425Z,57.54
2022-12-11T17:06:42.936Z,58.01
2022-12-11T17:09:14.427Z,59.86
2022-12-11T17:11:45.942Z,58.88
2022-12-11T17:14:17.454Z,60.16
2022-12-11T17:16:49.683Z,60.20
2022-12-11T17:19:21.246Z,59.71
2022-12-11T17:21:52.957Z,60.15
2022-12-11T17:24:24.521Z,60.77
2022-12-11T17:26:56.482Z,60.58
2022-12-11T17:29:28.337Z,60.46
2022-12-11T17:31:59.898Z,61.08
2022-12-11T17:34:37.566Z,60.94
2022-12-11T17:37:09.782Z,61.83
2022-12-11T17:39:41.350Z,60.94
2022-12-11T17:42:13.292Z,61.72
2022-12-11T17:44:44.916Z,61.23
2022-12-11T17:47:16.505Z,61.60
2022-12-11T17:49:48.049Z,62.40
2022-12-11T17:52:19.651Z,63.00
2022-12-11T17:54:52.628Z,63.70
2022-12-11T17:57:24.214Z,64.17
2022-12-11T17:59:55.851Z,64.34
2022-12-11T18:02:27.792Z,64.10
2022-12-11T18:04:59.337Z,64.52
2022-12-11T18:07:30.889Z,63.42
2022-12-11T18:10:02.520Z,64.48
2022-12-11T18:12:34.104Z,63.73
2022-12-11T18:15:06.230Z,62.56
2022-12-11T18:17:38.049Z,62.23
2022-12-11T18:20:15.124Z,62.06
2022-12-11T18:22:46.901Z,62.31
2022-12-11T18:25:26.335Z,63.28
2022-12-11T18:27:58.502Z,62.31
2022-12-11T18:30:30.109Z,62.31
2022-12-11T18:33:02.422Z,62.84
2022-12-11T18:35:34.428Z,63.18
2022-12-11T18:38:06.234Z,63.31
2022-12-11T18:40:38.576Z,64.73
2022-12-11T18:43:10.213Z,64.47
2022-12-11T18:45:43.014Z,64.81
2022-12-11T18:48:14.952Z,65.47
2022-12-11T18:50:49.225Z,65.06
2022-12-11T18:53:20.918Z,64.73
2022-12-11T18:55:57.119Z,65.08
2022-12-11T18:58:31.944Z,66.06
2022-12-11T19:01:10.004Z,65.83
2022-12-11T19:03:41.687Z,65.11
2022-12-11T19:06:16.501Z,64.58
2022-12-11T19:08:48.381Z,65.16
2022-12-11T19:11:23.770Z,65.84
2022-12-11T19:13:57.143Z,64.68
2022-12-11T19:16:32.798Z,64.95
2022-12-11T19:19:16.563Z,65.35
2022-12-11T19:21:50.064Z,66.00
2022-12-11T19:24:23.151Z,66.51
2022-12-11T19:26:55.366Z,65.87
2022-12-11T19:29:30.636Z,66.77
2022-12-11T19:32:03.790Z,67.28
2022-12-11T19:34:36.087Z,67.14
2022-12-11T19:37:08.634Z,67.61
2022-12-11T19:39:40.614Z,68.05
2022-12-11T19:42:12.542Z,66.84
2022-12-11T19:44:44.357Z,67.86
2022-12-11T19:47:19.049Z,67.91
2022-12-11T19:49:50.943Z,67.84
2022-12-11T19:52:22.716Z,67.46
2022-12-11T19:54:54.610Z,67.58
2022-12-11T19:57:26.405Z,68.03
2022-12-11T19:59:58.990Z,68.41
2022-12-11T20:02:31.973Z,67.51
2022-12-11T20:05:03.893Z,67.96
2022-12-11T20:07:35.976Z,68.10
2022-12-11T20:10:08.188Z,67.24
2022-12-11T20:12:43.121Z,67.56
2022-12-11T20:15:14.999Z,67.59
2022-12-11T20:17:47.066Z,68.09
2022-12-11T20:20:18.888Z,68.35
2022-12-11T20:22:56.054Z,68.18
2022-12-11T20:25:28.279Z,67.29
2022-12-11T20:27:59.838Z,67.19
2022-12-11T20:30:31.462Z,67.87
2022-12-11T20:33:03.145Z,68.08
2022-12-11T20:35:34.712Z,67.70
2022-12-11T20:38:06.247Z,66.76
2022-12-11T20:40:37.853Z,66.78
2022-12-11T20:43:09.593Z,67.49
2022-12-11T20:45:46.595Z,67.47
2022-12-11T20:48:18.246Z,68.19
2022-12-11T20:50:49.829Z,68.55
2022-12-11T20:53:21.355Z,68.56
2022-12-11T20:55:52.842Z,68.13
2022-12-11T20:58:24.457Z,68.10
2022-12-11T21:00:56.027Z,67.61
2022-12-11T21:03:27.660Z,68.78
2022-12-11T21:05:59.286Z,68.64
2022-12-11T21:08:30.878Z,70.40
2022-12-11T21:11:05.937Z,69.25
2022-12-11T21:13:37.492Z,69.78
2022-12-11T21:16:09.910Z,68.59
2022-12-11T21:18:41.565Z,70.01
2022-12-11T21:21:13.711Z,69.05
2022-12-11T21:23:45.297Z,70.35
2022-12-11T21:26:18.356Z,69.39
2022-12-11T21:28:50.643Z,69.73
2022-12-11T21:31:22.304Z,69.84
2022-12-11T21:33:53.843Z,69.76
2022-12-11T21:36:25.713Z,69.81
2022-12-11T21:38:59.215Z,70.11
2022-12-11T21:41:30.842Z,70.28
2022-12-11T21:45:14.459Z,70.17
2022-12-11T21:46:54.058Z,69.40
2022-12-11T21:49:25.647Z,69.31
2022-12-11T21:51:57.236Z,69.35
2022-12-11T21:54:28.836Z,69.26
2022-12-11T21:57:00.543Z,69.34
2022-12-11T21:59:32.161Z,69.75
2022-12-11T22:02:03.839Z,69.03
2022-12-11T22:04:35.400Z,69.37
2022-12-11T22:07:06.996Z,69.20
2022-12-11T22:09:38.608Z,69.18
2022-12-11T22:12:22.505Z,69.20
2022-12-11T22:14:54.211Z,69.38
2022-12-11T22:17:25.791Z,69.43
2022-12-11T22:19:57.346Z,68.92
2022-12-11T22:22:29.011Z,69.90
2022-12-11T22:25:00.595Z,68.72
2022-12-11T22:27:32.150Z,68.64
2022-12-11T22:30:04.706Z,68.29
2022-12-11T22:32:37.083Z,67.43
2022-12-11T22:35:09.860Z,68.64
2022-12-11T22:37:41.720Z,67.08
2022-12-11T22:40:13.240Z,67.08
2022-12-11T22:42:44.857Z,68.10
2022-12-11T22:45:16.476Z,68.71
2022-12-11T22:47:48.025Z,68.01
2022-12-11T22:50:19.619Z,67.63
2022-12-11T22:52:51.199Z,68.22
2022-12-11T22:55:22.789Z,67.36
2022-12-11T22:57:54.405Z,67.94
